createdAt,value
2023-05-25T00:02:24.627Z,58.20
2023-05-25T00:04:52.146Z,58.20
2023-05-25T00:07:19.132Z,58.30
2023-05-25T00:09:46.568Z,58.40
2023-05-25T00:12:14.798Z,58.60
2023-05-25T00:14:41.449Z,58.80
2023-05-25T00:17:09.969Z,59.00
2023-05-25T00:19:37.286Z,59.10
2023-05-25T00:22:04.132Z,59.30
2023-05-25T00:24:31.131Z,59.40
2023-05-25T00:26:58.544Z,59.40
2023-05-25T00:29:26.112Z,59.40
2023-05-25T00:31:53.385Z,59.50
2023-05-25T00:34:20.091Z,59.60
2023-05-25T00:36:49.885Z,59.60
2023-05-25T00:39:17.966Z,59.50
2023-05-25T00:41:46.129Z,59.50
2023-05-25T00:44:16.803Z,59.50
2023-05-25T00:46:52.077Z,59.50
2023-05-25T00:49:23.002Z,59.50
2023-05-25T00:51:52.167Z,59.40
2023-05-25T00:54:19.599Z,59.60
2023-05-25T00:56:55.823Z,59.70
2023-05-25T00:59:35.566Z,59.80
2023-05-25T01:02:08.185Z,60.00
2023-05-25T01:04:38.148Z,59.80
2023-05-25T01:07:06.679Z,59.80
2023-05-25T01:09:35.059Z,59.90
2023-05-25T01:12:03.046Z,60.00
2023-05-25T01:14:30.667Z,60.00
2023-05-25T01:16:58.971Z,59.90
2023-05-25T01:19:25.801Z,60.00
2023-05-25T01:21:59.778Z,60.00
2023-05-25T01:24:30.917Z,60.00
2023-05-25T01:27:32.514Z,59.90
2023-05-25T01:29:59.993Z,60.20
2023-05-25T01:32:27.364Z,60.10
2023-05-25T01:34:56.285Z,60.30
2023-05-25T01:37:24.636Z,60.50
2023-05-25T01:39:51.254Z,60.60
2023-05-25T01:42:17.936Z,60.70
2023-05-25T01:44:45.081Z,61.00
2023-05-25T01:47:32.633Z,61.20
2023-05-25T01:50:08.517Z,61.40
2023-05-25T01:52:41.645Z,61.50
2023-05-25T01:55:16.538Z,61.40
2023-05-25T01:57:45.578Z,61.60
2023-05-25T02:00:13.396Z,61.60
2023-05-25T02:02:42.835Z,61.60
2023-05-25T02:05:11.025Z,61.70
2023-05-25T02:07:38.153Z,61.70
2023-05-25T02:10:05.469Z,61.70
2023-05-25T02:12:32.162Z,61.70
2023-05-25T02:14:58.821Z,61.80
2023-05-25T02:17:28.248Z,61.90
2023-05-25T02:19:55.050Z,62.00
2023-05-25T02:22:22.644Z,62.10
2023-05-25T02:24:49.319Z,62.10
2023-05-25T02:27:16.042Z,62.10
2023-05-25T02:29:42.799Z,62.20
2023-05-25T02:32:09.559Z,62.30
2023-05-25T02:34:36.207Z,62.30
2023-05-25T02:37:02.874Z,62.40
2023-05-25T02:39:29.575Z,62.50
2023-05-25T02:41:56.230Z,62.50
2023-05-25T02:44:22.885Z,62.60
2023-05-25T02:46:49.525Z,62.60
2023-05-25T02:49:16.205Z,62.60
2023-05-25T02:51:42.829Z,62.70
2023-05-25T02:54:09.514Z,62.90
2023-05-25T02:56:36.182Z,63.00
2023-05-25T02:59:02.858Z,63.00
2023-05-25T03:01:31.117Z,63.10
2023-05-25T03:03:58.211Z,63.10
2023-05-25T03:06:26.284Z,63.20
2023-05-25T03:08:53.126Z,63.20
2023-05-25T03:11:19.750Z,63.20
2023-05-25T03:13:46.427Z,63.20
2023-05-25T03:16:13.127Z,63.30
2023-05-25T03:18:39.836Z,63.30
2023-05-25T03:21:08.963Z,63.30
2023-05-25T03:23:35.882Z,63.30
2023-05-25T03:26:02.553Z,63.30
2023-05-25T03:28:29.227Z,63.40
2023-05-25T03:30:56.564Z,63.40
2023-05-25T03:33:23.200Z,63.50
2023-05-25T03:35:49.858Z,63.50
2023-05-25T03:38:16.542Z,63.60
2023-05-25T03:40:43.225Z,63.60
2023-05-25T03:43:09.846Z,63.70
2023-05-25T03:45:36.472Z,63.70
2023-05-25T03:48:03.168Z,63.70
2023-05-25T03:50:29.823Z,63.60
2023-05-25T03:52:56.447Z,63.50
2023-05-25T03:55:23.103Z,63.40
2023-05-25T03:57:49.732Z,63.20
2023-05-25T04:00:16.952Z,63.00
2023-05-25T04:02:43.890Z,62.80
2023-05-25T04:05:10.846Z,62.70
2023-05-25T04:07:38.005Z,62.60
2023-05-25T04:10:05.529Z,62.40
2023-05-25T04:12:32.491Z,62.30
2023-05-25T04:14:59.316Z,62.20
2023-05-25T04:17:25.990Z,62.10
2023-05-25T04:19:52.862Z,62.00
2023-05-25T04:22:19.621Z,62.00
2023-05-25T04:24:46.809Z,62.00
2023-05-25T04:27:14.325Z,61.90
2023-05-25T04:29:41.897Z,61.70
2023-05-25T04:32:09.615Z,60.50
2023-05-25T04:34:36.655Z,58.10
2023-05-25T04:37:05.435Z,56.90
2023-05-25T04:39:32.768Z,56.70
2023-05-25T04:42:01.580Z,55.00
2023-05-25T04:44:29.877Z,52.60
2023-05-25T04:46:56.740Z,50.80
2023-05-25T04:49:23.415Z,51.00
2023-05-25T04:51:50.211Z,51.30
2023-05-25T04:54:17.018Z,50.90
2023-05-25T04:56:43.967Z,48.90
2023-05-25T04:59:11.171Z,47.20
2023-05-25T05:01:41.234Z,46.80
2023-05-25T05:04:08.586Z,47.50
2023-05-25T05:06:37.385Z,48.40
2023-05-25T05:09:04.173Z,49.10
2023-05-25T05:11:30.917Z,49.80
2023-05-25T05:13:57.710Z,50.50
2023-05-25T05:16:24.530Z,50.80
2023-05-25T05:18:51.282Z,51.00
2023-05-25T05:21:17.912Z,51.30
2023-05-25T05:23:44.802Z,51.50
2023-05-25T05:26:14.967Z,51.70
2023-05-25T05:28:41.637Z,51.80
2023-05-25T05:31:08.242Z,51.70
2023-05-25T05:33:35.197Z,49.30
2023-05-25T05:36:02.706Z,46.40
2023-05-25T05:38:29.443Z,45.10
2023-05-25T05:40:56.185Z,42.10
2023-05-25T05:43:22.973Z,39.20
2023-05-25T05:45:49.628Z,37.90
2023-05-25T05:48:16.275Z,35.70
2023-05-25T05:50:42.961Z,34.30
2023-05-25T05:53:09.933Z,32.40
2023-05-25T05:55:36.799Z,31.40
2023-05-25T05:58:03.646Z,30.00
2023-05-25T06:00:30.451Z,28.90
2023-05-25T06:02:57.385Z,28.40
2023-05-25T06:05:24.224Z,27.80
2023-05-25T06:07:51.756Z,27.90
2023-05-25T06:10:18.400Z,27.70
2023-05-25T06:12:45.097Z,27.30
2023-05-25T06:15:12.000Z,27.60
2023-05-25T06:17:38.713Z,28.00
2023-05-25T06:20:06.597Z,28.60
2023-05-25T06:22:33.453Z,29.60
2023-05-25T06:25:00.809Z,31.20
2023-05-25T06:27:27.579Z,32.30
2023-05-25T06:29:54.289Z,33.60
2023-05-25T06:32:20.995Z,34.20
2023-05-25T06:34:47.667Z,34.80
2023-05-25T06:37:15.618Z,35.70
2023-05-25T06:39:43.198Z,36.40
2023-05-25T06:42:12.984Z,37.00
2023-05-25T06:44:39.687Z,37.60
2023-05-25T06:47:06.851Z,38.10
2023-05-25T06:49:33.559Z,38.20
2023-05-25T06:52:00.405Z,38.20
2023-05-25T06:54:27.457Z,38.00
2023-05-25T06:56:54.090Z,37.90
2023-05-25T06:59:20.773Z,37.80
2023-05-25T07:01:47.636Z,37.80
2023-05-25T07:04:14.461Z,37.60
2023-05-25T07:06:41.210Z,37.80
2023-05-25T07:09:07.943Z,37.80
2023-05-25T07:11:34.579Z,37.70
2023-05-25T07:14:01.246Z,37.30
2023-05-25T07:16:28.018Z,37.50
2023-05-25T07:18:54.729Z,38.00
2023-05-25T07:21:21.351Z,38.40
2023-05-25T07:23:47.999Z,38.40
2023-05-25T07:26:15.115Z,38.40
2023-05-25T07:28:41.869Z,38.40
2023-05-25T07:31:10.383Z,38.50
2023-05-25T07:33:37.086Z,38.50
2023-05-25T07:36:03.938Z,38.30
2023-05-25T07:38:30.766Z,38.50
2023-05-25T07:40:57.397Z,38.80
2023-05-25T07:43:24.796Z,38.60
2023-05-25T07:45:51.470Z,38.30
2023-05-25T07:48:18.213Z,38.30
2023-05-25T07:50:45.821Z,38.60
2023-05-25T07:53:12.547Z,38.70
2023-05-25T07:55:39.170Z,38.70
2023-05-25T07:58:07.407Z,39.10
2023-05-25T08:00:34.468Z,39.30
2023-05-25T08:03:02.554Z,39.40
2023-05-25T08:05:29.684Z,39.30
2023-05-25T08:07:56.401Z,39.40
2023-05-25T08:10:23.645Z,39.30
2023-05-25T08:12:52.262Z,39.40
2023-05-25T08:15:19.456Z,39.40
2023-05-25T08:17:46.593Z,38.70
2023-05-25T08:20:14.456Z,39.00
2023-05-25T08:22:41.165Z,39.30
2023-05-25T08:25:08.302Z,39.20
2023-05-25T08:27:36.228Z,39.00
2023-05-25T08:30:05.866Z,39.20
2023-05-25T08:32:32.577Z,39.20
2023-05-25T08:34:59.293Z,38.80
2023-05-25T08:37:26.200Z,38.70
2023-05-25T08:39:52.855Z,38.80
2023-05-25T08:42:19.500Z,38.60
2023-05-25T08:44:46.224Z,37.90
2023-05-25T08:47:15.226Z,37.80
2023-05-25T08:49:44.334Z,37.70
2023-05-25T08:52:14.399Z,37.80
2023-05-25T08:54:44.118Z,37.30
2023-05-25T08:57:13.796Z,37.30
2023-05-25T08:59:50.383Z,37.70
2023-05-25T09:02:39.563Z,37.40
2023-05-25T09:05:06.805Z,37.40
2023-05-25T09:07:34.738Z,37.60
2023-05-25T09:10:02.364Z,37.60
2023-05-25T09:12:31.049Z,37.40
2023-05-25T09:14:58.613Z,37.30
2023-05-25T09:17:25.581Z,37.50
2023-05-25T09:19:52.771Z,37.20
2023-05-25T09:22:19.449Z,36.70
2023-05-25T09:24:46.505Z,36.80
2023-05-25T09:27:17.557Z,36.90
2023-05-25T09:29:44.807Z,36.90
2023-05-25T09:32:11.540Z,37.00
2023-05-25T09:34:38.332Z,37.00
2023-05-25T09:37:11.968Z,36.70
2023-05-25T09:39:42.511Z,36.90
2023-05-25T09:42:10.448Z,37.20
2023-05-25T09:44:37.311Z,37.20
2023-05-25T09:47:04.814Z,36.80
2023-05-25T09:49:31.708Z,37.10
2023-05-25T09:51:58.395Z,37.10
2023-05-25T09:54:26.785Z,37.30
2023-05-25T09:56:54.147Z,37.20
2023-05-25T09:59:23.013Z,36.80
2023-05-25T10:01:55.895Z,36.90
2023-05-25T10:04:22.736Z,36.60
2023-05-25T10:06:52.708Z,36.70
2023-05-25T10:09:20.389Z,36.40
2023-05-25T10:11:49.802Z,36.20
2023-05-25T10:14:22.522Z,36.20
2023-05-25T10:16:52.870Z,36.00
2023-05-25T10:19:41.399Z,36.10
2023-05-25T10:22:16.055Z,35.80
2023-05-25T10:25:01.617Z,36.20
2023-05-25T10:27:38.635Z,36.20
2023-05-25T10:30:06.041Z,35.80
2023-05-25T10:32:33.862Z,36.00
2023-05-25T10:35:02.066Z,36.10
2023-05-25T10:37:29.338Z,35.90
2023-05-25T10:39:57.690Z,35.90
2023-05-25T10:42:25.761Z,36.00
2023-05-25T10:44:52.649Z,35.70
2023-05-25T10:47:20.469Z,35.80
2023-05-25T10:49:55.493Z,35.60
2023-05-25T10:52:26.925Z,35.80
2023-05-25T10:54:56.505Z,35.80
2023-05-25T10:57:24.176Z,35.40
2023-05-25T10:59:52.403Z,35.40
2023-05-25T11:02:24.986Z,35.80
2023-05-25T11:05:11.662Z,36.10
2023-05-25T11:07:56.562Z,36.10
2023-05-25T11:10:42.210Z,35.90
2023-05-25T11:13:38.040Z,36.00
2023-05-25T11:16:21.413Z,36.00
2023-05-25T11:18:52.707Z,36.00
2023-05-25T11:21:23.701Z,36.00
2023-05-25T11:24:06.629Z,35.90
2023-05-25T11:26:34.654Z,35.70
2023-05-25T11:29:11.835Z,36.00
2023-05-25T11:31:42.463Z,35.80
2023-05-25T11:34:12.183Z,35.30
2023-05-25T11:36:39.219Z,35.80
2023-05-25T11:39:17.046Z,35.90
2023-05-25T11:41:52.386Z,35.70
2023-05-25T11:44:29.527Z,35.70
2023-05-25T11:46:57.777Z,35.50
2023-05-25T11:49:27.637Z,35.50
2023-05-25T11:51:56.523Z,35.60
2023-05-25T11:54:27.718Z,35.70
2023-05-25T11:56:58.833Z,35.70
2023-05-25T11:59:32.769Z,35.90
2023-05-25T12:02:03.703Z,35.80
2023-05-25T12:04:34.893Z,35.80
2023-05-25T12:07:02.589Z,35.90
2023-05-25T12:09:29.276Z,35.90
2023-05-25T12:11:55.987Z,35.60
2023-05-25T12:14:23.920Z,35.50
2023-05-25T12:16:51.739Z,35.80
2023-05-25T12:19:18.808Z,35.80
2023-05-25T12:21:46.027Z,35.50
2023-05-25T12:24:13.373Z,35.70
2023-05-25T12:27:01.368Z,35.40
2023-05-25T12:29:28.643Z,35.50
2023-05-25T12:32:06.760Z,35.60
2023-05-25T12:34:34.636Z,35.40
2023-05-25T12:37:01.528Z,35.50
2023-05-25T12:39:31.067Z,35.30
2023-05-25T12:41:59.367Z,35.00
2023-05-25T12:44:34.921Z,35.00
2023-05-25T12:47:13.385Z,35.00
2023-05-25T12:49:44.997Z,34.80
2023-05-25T12:52:41.079Z,35.00
2023-05-25T12:55:22.852Z,34.70
2023-05-25T12:57:52.754Z,34.70
2023-05-25T13:00:27.604Z,34.50
2023-05-25T13:02:54.819Z,34.60
2023-05-25T13:05:26.786Z,34.80
2023-05-25T13:07:55.372Z,34.70
2023-05-25T13:10:22.787Z,34.80
2023-05-25T13:12:50.969Z,34.80
2023-05-25T13:15:22.804Z,34.80
2023-05-25T13:17:50.981Z,34.80
2023-05-25T13:20:19.607Z,34.70
2023-05-25T13:22:48.456Z,34.40
2023-05-25T13:25:15.205Z,34.30
2023-05-25T13:27:47.725Z,34.40
2023-05-25T13:30:15.260Z,34.40
2023-05-25T13:32:46.198Z,34.40
2023-05-25T13:35:22.582Z,34.30
2023-05-25T13:37:49.273Z,34.20
2023-05-25T13:40:15.975Z,34.20
2023-05-25T13:42:43.053Z,34.40
2023-05-25T13:45:10.206Z,34.30
2023-05-25T13:47:36.920Z,34.10
2023-05-25T13:50:04.463Z,34.00
2023-05-25T13:52:31.132Z,34.00
2023-05-25T13:54:57.753Z,34.00
2023-05-25T13:57:24.383Z,33.90
2023-05-25T13:59:51.452Z,33.90
2023-05-25T14:02:18.117Z,34.20
2023-05-25T14:04:44.795Z,34.20
2023-05-25T14:07:12.272Z,34.20
2023-05-25T14:09:38.910Z,34.30
2023-05-25T14:12:06.641Z,34.40
2023-05-25T14:14:33.728Z,34.30
2023-05-25T14:17:01.305Z,34.30
2023-05-25T14:19:28.579Z,34.20
2023-05-25T14:24:24.956Z,34.40
2023-05-25T14:26:51.597Z,34.30
2023-05-25T14:29:18.267Z,34.20
2023-05-25T14:31:45.057Z,34.20
2023-05-25T14:34:12.000Z,34.40
2023-05-25T14:36:38.823Z,34.40
2023-05-25T14:39:05.521Z,34.20
2023-05-25T14:41:32.205Z,34.40
2023-05-25T14:43:58.855Z,34.40
2023-05-25T14:46:25.677Z,34.30
2023-05-25T14:48:52.369Z,34.20
2023-05-25T14:51:19.288Z,34.10
2023-05-25T14:53:46.147Z,34.10
2023-05-25T14:56:12.784Z,34.10
2023-05-25T14:58:39.408Z,34.40
2023-05-25T15:01:06.264Z,34.20
2023-05-25T15:03:33.111Z,34.10
2023-05-25T15:05:59.872Z,34.10
2023-05-25T15:08:26.940Z,34.10
2023-05-25T15:10:53.669Z,34.20
2023-05-25T15:13:22.598Z,34.10
2023-05-25T15:15:54.396Z,34.10
2023-05-25T15:18:21.089Z,34.00
2023-05-25T15:20:47.808Z,34.00
2023-05-25T15:23:14.543Z,34.10
2023-05-25T15:25:41.196Z,34.10
2023-05-25T15:28:07.900Z,34.00
2023-05-25T15:30:34.608Z,33.90
2023-05-25T15:33:02.122Z,34.00
2023-05-25T15:35:32.145Z,34.10
2023-05-25T15:37:59.860Z,34.10
2023-05-25T15:40:26.846Z,34.20
2023-05-25T15:42:53.693Z,34.30
2023-05-25T15:45:20.378Z,34.30
2023-05-25T15:47:47.217Z,34.40
2023-05-25T15:50:13.935Z,34.40
2023-05-25T15:52:41.521Z,34.70
2023-05-25T15:55:08.887Z,34.60
2023-05-25T15:57:35.522Z,34.60
2023-05-25T16:00:02.160Z,34.60
2023-05-25T16:02:28.856Z,34.50
2023-05-25T16:04:55.506Z,34.70
2023-05-25T16:07:22.287Z,34.60
2023-05-25T16:09:48.947Z,34.50
2023-05-25T16:12:15.834Z,34.60
2023-05-25T16:14:42.547Z,34.70
2023-05-25T16:17:09.591Z,34.70
2023-05-25T16:19:36.276Z,34.80
2023-05-25T16:22:02.922Z,34.70
2023-05-25T16:24:29.557Z,34.60
2023-05-25T16:26:57.526Z,34.60
2023-05-25T16:29:24.160Z,34.70
2023-05-25T16:31:51.124Z,34.80
2023-05-25T16:34:17.758Z,34.70
2023-05-25T16:36:44.383Z,34.80
2023-05-25T16:39:11.720Z,34.80
2023-05-25T16:41:38.387Z,34.80
2023-05-25T16:44:05.031Z,34.80
2023-05-25T16:46:32.755Z,34.90
2023-05-25T16:48:59.463Z,34.90
2023-05-25T16:51:26.121Z,35.00
2023-05-25T16:53:53.791Z,35.00
2023-05-25T16:56:21.452Z,35.10
2023-05-25T16:58:48.096Z,35.10
2023-05-25T17:01:14.714Z,35.10
2023-05-25T17:03:41.484Z,35.20
2023-05-25T17:06:08.541Z,35.40
2023-05-25T17:08:36.339Z,35.50
2023-05-25T17:11:02.989Z,35.40
2023-05-25T17:13:29.657Z,35.40
2023-05-25T17:15:56.415Z,35.40
2023-05-25T17:18:23.119Z,35.30
2023-05-25T17:20:49.762Z,35.30
2023-05-25T17:23:16.856Z,35.40
2023-05-25T17:25:44.727Z,35.40
2023-05-25T17:28:11.628Z,35.40
2023-05-25T17:30:38.340Z,35.50
2023-05-25T17:33:05.056Z,35.50
2023-05-25T17:35:31.728Z,35.60
2023-05-25T17:37:58.387Z,35.60
2023-05-25T17:40:25.064Z,35.60
2023-05-25T17:42:51.705Z,35.60
2023-05-25T17:45:18.383Z,35.60
2023-05-25T17:47:45.094Z,35.60
2023-05-25T17:50:11.826Z,35.70
2023-05-25T17:52:38.469Z,35.80
2023-05-25T17:55:06.982Z,35.90
2023-05-25T17:57:33.731Z,35.90
2023-05-25T18:00:00.547Z,36.10
2023-05-25T18:02:29.733Z,36.20
2023-05-25T18:04:56.894Z,36.30
2023-05-25T18:07:23.579Z,36.40
2023-05-25T18:09:50.426Z,36.50
2023-05-25T18:12:17.096Z,36.60
2023-05-25T18:14:43.724Z,36.80
2023-05-25T18:17:10.587Z,37.00
2023-05-25T18:19:37.261Z,37.10
2023-05-25T18:22:03.976Z,37.20
2023-05-25T18:24:30.749Z,37.30
2023-05-25T18:26:59.614Z,37.50
2023-05-25T18:29:26.253Z,37.60
2023-05-25T18:31:52.880Z,37.80
2023-05-25T18:34:19.596Z,37.90
2023-05-25T18:36:46.235Z,38.00
2023-05-25T18:39:12.854Z,38.20
2023-05-25T18:41:39.710Z,38.30
2023-05-25T18:44:06.391Z,38.40
2023-05-25T18:46:33.088Z,38.60
2023-05-25T18:48:59.802Z,38.80
2023-05-25T18:51:26.806Z,38.90
2023-05-25T18:53:53.479Z,39.10
2023-05-25T18:56:20.151Z,39.40
2023-05-25T18:58:47.881Z,39.60
2023-05-25T19:01:15.545Z,39.90
2023-05-25T19:03:42.362Z,40.20
2023-05-25T19:06:09.055Z,40.50
2023-05-25T19:08:35.727Z,40.80
2023-05-25T19:11:02.340Z,41.00
2023-05-25T19:13:29.276Z,41.30
2023-05-25T19:15:55.946Z,41.60
2023-05-25T19:18:22.670Z,41.90
2023-05-25T19:20:49.409Z,42.20
2023-05-25T19:23:16.226Z,42.50
2023-05-25T19:25:43.064Z,42.70
2023-05-25T19:28:09.908Z,43.00
2023-05-25T19:30:36.594Z,43.30
2023-05-25T19:33:03.443Z,43.40
2023-05-25T19:35:30.444Z,43.70
2023-05-25T19:37:57.979Z,43.90
2023-05-25T19:40:25.506Z,44.00
2023-05-25T19:42:52.157Z,44.30
2023-05-25T19:45:19.319Z,44.50
2023-05-25T19:47:47.367Z,44.60
2023-05-25T19:50:14.126Z,44.80
2023-05-25T19:52:41.542Z,44.90
2023-05-25T19:55:08.454Z,45.00
2023-05-25T19:57:35.138Z,45.10
2023-05-25T20:00:01.837Z,45.20
2023-05-25T20:02:28.634Z,45.00
2023-05-25T20:04:55.361Z,45.20
2023-05-25T20:07:22.003Z,45.40
2023-05-25T20:09:48.657Z,45.30
2023-05-25T20:12:16.244Z,45.30
2023-05-25T20:14:43.600Z,45.30
2023-05-25T20:17:10.246Z,45.50
2023-05-25T20:19:36.890Z,45.50
2023-05-25T20:22:05.795Z,45.50
2023-05-25T20:24:33.176Z,45.60
2023-05-25T20:27:00.108Z,45.80
2023-05-25T20:29:27.416Z,45.90
2023-05-25T20:31:54.084Z,46.00
2023-05-25T20:34:20.914Z,46.10
2023-05-25T20:36:47.558Z,46.20
2023-05-25T20:39:14.245Z,46.30
2023-05-25T20:41:40.890Z,46.10
2023-05-25T20:44:08.692Z,46.10
2023-05-25T20:46:35.580Z,46.00
2023-05-25T20:49:03.466Z,46.20
2023-05-25T20:51:31.112Z,46.40
2023-05-25T20:53:57.785Z,46.60
2023-05-25T20:56:26.470Z,46.80
2023-05-25T20:58:53.249Z,46.60
2023-05-25T21:01:20.011Z,46.70
2023-05-25T21:03:46.838Z,46.90
2023-05-25T21:06:13.590Z,47.20
2023-05-25T21:08:40.403Z,47.40
2023-05-25T21:11:07.039Z,47.20
2023-05-25T21:13:33.644Z,47.30
2023-05-25T21:16:00.429Z,47.10
2023-05-25T21:18:27.106Z,47.30
2023-05-25T21:20:54.564Z,47.50
2023-05-25T21:23:21.358Z,47.40
2023-05-25T21:25:48.262Z,47.60
2023-05-25T21:28:15.413Z,47.80
2023-05-25T21:30:42.051Z,48.00
2023-05-25T21:33:08.738Z,48.20
2023-05-25T21:35:35.325Z,48.30
2023-05-25T21:38:01.953Z,48.10
2023-05-25T21:40:28.626Z,48.20
2023-05-25T21:42:55.291Z,48.50
2023-05-25T21:45:21.992Z,48.40
2023-05-25T21:47:48.701Z,48.60
2023-05-25T21:50:15.730Z,48.50
2023-05-25T21:52:42.490Z,48.60
2023-05-25T21:55:09.171Z,49.00
2023-05-25T21:57:36.297Z,48.90
2023-05-25T22:00:04.972Z,49.10
2023-05-25T22:02:31.867Z,49.50
2023-05-25T22:04:58.540Z,49.80
2023-05-25T22:07:25.237Z,50.10
2023-05-25T22:09:51.806Z,50.30
2023-05-25T22:12:20.150Z,50.00
2023-05-25T22:14:46.806Z,50.10
2023-05-25T22:17:14.210Z,50.40
2023-05-25T22:19:43.228Z,50.60
2023-05-25T22:22:11.511Z,50.80
2023-05-25T22:24:38.188Z,51.00
2023-05-25T22:27:05.037Z,51.10
2023-05-25T22:29:31.674Z,50.80
2023-05-25T22:31:58.301Z,50.90
2023-05-25T22:34:24.958Z,51.20
2023-05-25T22:36:51.594Z,51.40
2023-05-25T22:39:18.249Z,51.60
2023-05-25T22:41:45.034Z,51.70
2023-05-25T22:44:11.606Z,51.90
2023-05-25T22:46:38.275Z,51.60
2023-05-25T22:49:04.921Z,51.70
2023-05-25T22:51:31.581Z,51.90
2023-05-25T22:53:58.195Z,52.10
2023-05-25T22:56:24.821Z,52.30
2023-05-25T22:58:51.447Z,52.50
2023-05-25T23:01:18.111Z,52.60
2023-05-25T23:03:44.931Z,52.80
2023-05-25T23:06:11.617Z,52.90
2023-05-25T23:08:38.294Z,53.00
2023-05-25T23:11:04.961Z,53.10
2023-05-25T23:13:31.958Z,53.20
2023-05-25T23:15:59.485Z,53.40
2023-05-25T23:18:26.151Z,53.40
2023-05-25T23:20:52.773Z,53.60
2023-05-25T23:23:19.526Z,53.80
2023-05-25T23:25:46.304Z,53.80
2023-05-25T23:28:13.057Z,53.60
2023-05-25T23:30:40.026Z,53.60
2023-05-25T23:33:08.343Z,53.80
2023-05-25T23:35:35.070Z,54.00
2023-05-25T23:38:01.824Z,54.10
2023-05-25T23:40:29.209Z,54.20
2023-05-25T23:42:55.962Z,54.10
2023-05-25T23:45:22.632Z,54.10
2023-05-25T23:47:49.338Z,54.30
2023-05-25T23:50:16.033Z,54.40
2023-05-25T23:52:42.708Z,54.50
2023-05-25T23:55:09.535Z,54.60
2023-05-25T23:57:36.611Z,54.70
